sensor_id;sensor_type;location;lat;lon;timestamp;P1;durP1;ratioP1;P2;durP2;ratioP2
15340;SDS011;7770;52.158;5.372;2023-08-01T00:00:45;7.93;;;5.13;;
15340;SDS011;7770;52.158;5.372;2023-08-01T00:03:31;6.47;;;5.13;;
15340;SDS011;7770;52.158;5.372;2023-08-01T00:06:17;7.83;;;5.40;;
15340;SDS011;7770;52.158;5.372;2023-08-01T00:09:05;7.40;;;5.73;;
15340;SDS011;7770;52.158;5.372;2023-08-01T00:11:51;8.87;;;6.03;;
15340;SDS011;7770;52.158;5.372;2023-08-01T00:14:37;8.80;;;5.93;;
15340;SDS011;7770;52.158;5.372;2023-08-01T00:17:23;9.27;;;6.37;;
15340;SDS011;7770;52.158;5.372;2023-08-01T00:20:09;7.67;;;5.80;;
15340;SDS011;7770;52.158;5.372;2023-08-01T00:22:55;11.20;;;6.60;;
15340;SDS011;7770;52.158;5.372;2023-08-01T00:25:42;13.13;;;6.60;;
15340;SDS011;7770;52.158;5.372;2023-08-01T00:28:29;9.43;;;6.50;;
15340;SDS011;7770;52.158;5.372;2023-08-01T00:31:16;8.47;;;6.50;;
15340;SDS011;7770;52.158;5.372;2023-08-01T00:34:02;12.67;;;7.00;;
15340;SDS011;7770;52.158;5.372;2023-08-01T00:36:48;13.07;;;6.73;;
15340;SDS011;7770;52.158;5.372;2023-08-01T00:39:34;12.77;;;7.20;;
15340;SDS011;7770;52.158;5.372;2023-08-01T00:42:20;10.57;;;7.23;;
15340;SDS011;7770;52.158;5.372;2023-08-01T00:45:06;10.67;;;6.77;;
15340;SDS011;7770;52.158;5.372;2023-08-01T00:47:54;12.37;;;7.37;;
15340;SDS011;7770;52.158;5.372;2023-08-01T00:50:40;11.67;;;7.07;;
15340;SDS011;7770;52.158;5.372;2023-08-01T00:53:26;13.27;;;7.57;;
15340;SDS011;7770;52.158;5.372;2023-08-01T00:56:14;9.60;;;6.90;;
15340;SDS011;7770;52.158;5.372;2023-08-01T00:59:00;12.53;;;7.30;;
15340;SDS011;7770;52.158;5.372;2023-08-01T01:01:46;11.03;;;7.17;;
15340;SDS011;7770;52.158;5.372;2023-08-01T01:04:32;15.50;;;7.30;;
15340;SDS011;7770;52.158;5.372;2023-08-01T01:07:18;10.67;;;7.60;;
15340;SDS011;7770;52.158;5.372;2023-08-01T01:10:06;13.40;;;7.40;;
15340;SDS011;7770;52.158;5.372;2023-08-01T01:12:52;12.80;;;7.53;;
15340;SDS011;7770;52.158;5.372;2023-08-01T01:15:38;12.47;;;7.80;;
15340;SDS011;7770;52.158;5.372;2023-08-01T01:18:24;13.73;;;8.13;;
15340;SDS011;7770;52.158;5.372;2023-08-01T01:21:10;16.03;;;8.70;;
15340;SDS011;7770;52.158;5.372;2023-08-01T01:23:56;11.87;;;8.63;;
15340;SDS011;7770;52.158;5.372;2023-08-01T01:26:44;14.07;;;8.27;;
15340;SDS011;7770;52.158;5.372;2023-08-01T01:29:32;13.77;;;8.77;;
15340;SDS011;7770;52.158;5.372;2023-08-01T01:32:19;13.63;;;9.40;;
15340;SDS011;7770;52.158;5.372;2023-08-01T01:35:06;15.50;;;8.90;;
15340;SDS011;7770;52.158;5.372;2023-08-01T01:37:52;16.90;;;9.70;;
15340;SDS011;7770;52.158;5.372;2023-08-01T01:40:38;14.80;;;9.50;;
15340;SDS011;7770;52.158;5.372;2023-08-01T01:43:24;18.17;;;9.93;;
15340;SDS011;7770;52.158;5.372;2023-08-01T01:46:10;15.77;;;9.90;;
15340;SDS011;7770;52.158;5.372;2023-08-01T01:48:56;14.23;;;9.30;;
15340;SDS011;7770;52.158;5.372;2023-08-01T01:51:43;15.60;;;9.77;;
15340;SDS011;7770;52.158;5.372;2023-08-01T01:54:29;18.53;;;9.57;;
15340;SDS011;7770;52.158;5.372;2023-08-01T01:57:15;16.87;;;9.57;;
15340;SDS011;7770;52.158;5.372;2023-08-01T02:00:01;19.30;;;9.73;;
15340;SDS011;7770;52.158;5.372;2023-08-01T02:02:51;16.40;;;9.33;;
15340;SDS011;7770;52.158;5.372;2023-08-01T02:05:37;16.43;;;9.37;;
15340;SDS011;7770;52.158;5.372;2023-08-01T04:18:21;17.73;;;10.33;;
15340;SDS011;7770;52.158;5.372;2023-08-01T04:21:07;21.40;;;10.20;;
15340;SDS011;7770;52.158;5.372;2023-08-01T04:23:54;19.23;;;11.60;;
15340;SDS011;7770;52.158;5.372;2023-08-01T04:26:40;20.60;;;10.57;;
15340;SDS011;7770;52.158;5.372;2023-08-01T04:29:26;18.53;;;10.30;;
15340;SDS011;7770;52.158;5.372;2023-08-01T04:32:12;18.10;;;10.30;;
15340;SDS011;7770;52.158;5.372;2023-08-01T04:34:59;18.33;;;10.40;;
15340;SDS011;7770;52.158;5.372;2023-08-01T04:37:45;21.07;;;10.23;;
15340;SDS011;7770;52.158;5.372;2023-08-01T04:40:31;17.43;;;10.60;;
15340;SDS011;7770;52.158;5.372;2023-08-01T04:43:17;18.77;;;10.77;;
15340;SDS011;7770;52.158;5.372;2023-08-01T04:46:03;18.53;;;10.87;;
15340;SDS011;7770;52.158;5.372;2023-08-01T04:48:49;20.33;;;11.43;;
15340;SDS011;7770;52.158;5.372;2023-08-01T04:51:35;20.77;;;10.57;;
15340;SDS011;7770;52.158;5.372;2023-08-01T04:54:21;20.53;;;10.63;;
15340;SDS011;7770;52.158;5.372;2023-08-01T04:57:07;22.23;;;11.20;;
15340;SDS011;7770;52.158;5.372;2023-08-01T04:59:53;17.80;;;10.93;;
15340;SDS011;7770;52.158;5.372;2023-08-01T05:02:39;19.43;;;10.40;;
15340;SDS011;7770;52.158;5.372;2023-08-01T05:05:26;18.73;;;10.93;;
15340;SDS011;7770;52.158;5.372;2023-08-01T05:08:12;17.47;;;10.13;;
15340;SDS011;7770;52.158;5.372;2023-08-01T05:10:58;20.93;;;9.93;;
15340;SDS011;7770;52.158;5.372;2023-08-01T05:13:44;19.07;;;8.90;;
15340;SDS011;7770;52.158;5.372;2023-08-01T05:16:30;16.93;;;9.23;;
15340;SDS011;7770;52.158;5.372;2023-08-01T05:19:16;15.60;;;8.90;;
15340;SDS011;7770;52.158;5.372;2023-08-01T05:22:02;17.27;;;8.90;;
15340;SDS011;7770;52.158;5.372;2023-08-01T05:24:48;18.93;;;9.30;;
15340;SDS011;7770;52.158;5.372;2023-08-01T05:27:34;16.23;;;9.93;;
15340;SDS011;7770;52.158;5.372;2023-08-01T05:30:20;18.33;;;9.73;;
15340;SDS011;7770;52.158;5.372;2023-08-01T05:33:06;14.83;;;8.97;;
15340;SDS011;7770;52.158;5.372;2023-08-01T05:35:52;17.17;;;9.50;;
15340;SDS011;7770;52.158;5.372;2023-08-01T05:38:38;18.03;;;8.73;;
15340;SDS011;7770;52.158;5.372;2023-08-01T05:41:24;16.60;;;8.37;;
15340;SDS011;7770;52.158;5.372;2023-08-01T05:44:10;16.77;;;8.30;;
15340;SDS011;7770;52.158;5.372;2023-08-01T05:46:56;15.70;;;8.50;;
15340;SDS011;7770;52.158;5.372;2023-08-01T05:49:42;14.37;;;8.43;;
15340;SDS011;7770;52.158;5.372;2023-08-01T05:52:29;13.57;;;8.47;;
15340;SDS011;7770;52.158;5.372;2023-08-01T05:55:15;14.77;;;7.77;;
15340;SDS011;7770;52.158;5.372;2023-08-01T05:58:01;13.03;;;7.57;;
15340;SDS011;7770;52.158;5.372;2023-08-01T06:00:48;14.93;;;7.20;;
15340;SDS011;7770;52.158;5.372;2023-08-01T06:03:34;13.23;;;6.97;;
15340;SDS011;7770;52.158;5.372;2023-08-01T06:06:20;12.97;;;7.47;;
15340;SDS011;7770;52.158;5.372;2023-08-01T06:09:06;12.77;;;6.57;;
15340;SDS011;7770;52.158;5.372;2023-08-01T06:11:52;15.93;;;7.13;;
15340;SDS011;7770;52.158;5.372;2023-08-01T06:14:38;13.93;;;6.30;;
15340;SDS011;7770;52.158;5.372;2023-08-01T06:17:24;10.60;;;6.07;;
15340;SDS011;7770;52.158;5.372;2023-08-01T06:20:10;11.57;;;6.47;;
15340;SDS011;7770;52.158;5.372;2023-08-01T06:22:57;13.47;;;6.40;;
15340;SDS011;7770;52.158;5.372;2023-08-01T06:25:43;11.70;;;6.07;;
15340;SDS011;7770;52.158;5.372;2023-08-01T06:28:29;12.53;;;6.23;;
15340;SDS011;7770;52.158;5.372;2023-08-01T06:31:16;10.03;;;5.47;;
15340;SDS011;7770;52.158;5.372;2023-08-01T06:34:02;9.03;;;5.53;;
15340;SDS011;7770;52.158;5.372;2023-08-01T06:36:48;8.33;;;5.60;;
15340;SDS011;7770;52.158;5.372;2023-08-01T06:39:34;9.77;;;5.60;;
15340;SDS011;7770;52.158;5.372;2023-08-01T06:42:20;10.63;;;5.90;;
15340;SDS011;7770;52.158;5.372;2023-08-01T06:45:06;9.47;;;5.63;;
15340;SDS011;7770;52.158;5.372;2023-08-01T06:47:52;14.93;;;5.70;;
15340;SDS011;7770;52.158;5.372;2023-08-01T06:50:38;9.53;;;5.07;;
15340;SDS011;7770;52.158;5.372;2023-08-01T06:53:24;9.47;;;5.17;;
15340;SDS011;7770;52.158;5.372;2023-08-01T06:56:11;12.73;;;5.60;;
15340;SDS011;7770;52.158;5.372;2023-08-01T06:58:57;11.33;;;5.77;;
15340;SDS011;7770;52.158;5.372;2023-08-01T07:01:43;9.13;;;5.27;;
15340;SDS011;7770;52.158;5.372;2023-08-01T07:04:29;8.70;;;4.90;;
15340;SDS011;7770;52.158;5.372;2023-08-01T07:07:15;12.73;;;5.53;;
15340;SDS011;7770;52.158;5.372;2023-08-01T07:10:01;8.23;;;5.20;;
15340;SDS011;7770;52.158;5.372;2023-08-01T07:12:47;8.87;;;4.47;;
15340;SDS011;7770;52.158;5.372;2023-08-01T07:15:33;11.33;;;5.30;;
15340;SDS011;7770;52.158;5.372;2023-08-01T07:18:19;11.53;;;5.00;;
15340;SDS011;7770;52.158;5.372;2023-08-01T07:21:06;9.73;;;4.73;;
15340;SDS011;7770;52.158;5.372;2023-08-01T07:23:52;10.63;;;5.07;;
15340;SDS011;7770;52.158;5.372;2023-08-01T07:26:38;9.57;;;5.20;;
15340;SDS011;7770;52.158;5.372;2023-08-01T07:29:24;8.70;;;4.87;;
15340;SDS011;7770;52.158;5.372;2023-08-01T07:32:10;7.60;;;4.23;;
15340;SDS011;7770;52.158;5.372;2023-08-01T07:34:56;10.27;;;4.97;;
15340;SDS011;7770;52.158;5.372;2023-08-01T07:37:42;8.93;;;4.60;;
15340;SDS011;7770;52.158;5.372;2023-08-01T07:40:28;8.07;;;4.33;;
15340;SDS011;7770;52.158;5.372;2023-08-01T07:43:14;8.63;;;4.30;;
15340;SDS011;7770;52.158;5.372;2023-08-01T07:46:00;7.70;;;4.43;;
15340;SDS011;7770;52.158;5.372;2023-08-01T07:48:46;9.03;;;5.13;;
15340;SDS011;7770;52.158;5.372;2023-08-01T07:51:32;8.63;;;4.80;;
15340;SDS011;7770;52.158;5.372;2023-08-01T07:54:19;7.83;;;4.80;;
15340;SDS011;7770;52.158;5.372;2023-08-01T07:57:05;9.33;;;4.97;;
15340;SDS011;7770;52.158;5.372;2023-08-01T07:59:51;8.97;;;5.07;;
15340;SDS011;7770;52.158;5.372;2023-08-01T08:02:37;10.33;;;4.93;;
15340;SDS011;7770;52.158;5.372;2023-08-01T08:05:23;12.00;;;5.07;;
15340;SDS011;7770;52.158;5.372;2023-08-01T08:08:09;9.00;;;5.10;;
15340;SDS011;7770;52.158;5.372;2023-08-01T08:10:55;7.87;;;4.40;;
15340;SDS011;7770;52.158;5.372;2023-08-01T08:13:41;9.00;;;4.20;;
15340;SDS011;7770;52.158;5.372;2023-08-01T08:16:28;6.97;;;4.27;;
15340;SDS011;7770;52.158;5.372;2023-08-01T08:19:15;8.67;;;4.50;;
15340;SDS011;7770;52.158;5.372;2023-08-01T08:22:01;5.27;;;4.07;;
15340;SDS011;7770;52.158;5.372;2023-08-01T08:24:47;6.83;;;4.03;;
15340;SDS011;7770;52.158;5.372;2023-08-01T08:27:33;7.63;;;4.23;;
15340;SDS011;7770;52.158;5.372;2023-08-01T08:30:19;8.57;;;4.23;;
15340;SDS011;7770;52.158;5.372;2023-08-01T08:33:05;7.53;;;3.83;;
15340;SDS011;7770;52.158;5.372;2023-08-01T08:35:52;6.87;;;3.60;;
15340;SDS011;7770;52.158;5.372;2023-08-01T08:38:38;6.63;;;3.80;;
15340;SDS011;7770;52.158;5.372;2023-08-01T08:41:25;5.47;;;3.17;;
15340;SDS011;7770;52.158;5.372;2023-08-01T08:44:16;7.00;;;3.30;;
15340;SDS011;7770;52.158;5.372;2023-08-01T08:47:05;4.87;;;3.20;;
15340;SDS011;7770;52.158;5.372;2023-08-01T08:49:52;7.30;;;3.83;;
15340;SDS011;7770;52.158;5.372;2023-08-01T08:52:44;7.73;;;3.63;;
15340;SDS011;7770;52.158;5.372;2023-08-01T08:55:31;8.33;;;3.73;;
15340;SDS011;7770;52.158;5.372;2023-08-01T08:58:17;6.30;;;3.60;;
15340;SDS011;7770;52.158;5.372;2023-08-01T09:01:05;6.10;;;3.33;;
15340;SDS011;7770;52.158;5.372;2023-08-01T09:03:53;7.33;;;3.93;;
15340;SDS011;7770;52.158;5.372;2023-08-01T09:06:45;5.37;;;3.50;;
15340;SDS011;7770;52.158;5.372;2023-08-01T09:09:34;7.20;;;3.50;;
15340;SDS011;7770;52.158;5.372;2023-08-01T09:12:21;7.53;;;3.60;;
15340;SDS011;7770;52.158;5.372;2023-08-01T09:15:07;7.23;;;3.80;;
15340;SDS011;7770;52.158;5.372;2023-08-01T09:17:55;5.93;;;3.50;;
15340;SDS011;7770;52.158;5.372;2023-08-01T09:20:46;7.17;;;3.60;;
15340;SDS011;7770;52.158;5.372;2023-08-01T09:23:34;5.37;;;3.47;;
15340;SDS011;7770;52.158;5.372;2023-08-01T09:26:20;4.30;;;3.40;;
15340;SDS011;7770;52.158;5.372;2023-08-01T09:29:06;6.00;;;3.60;;
15340;SDS011;7770;52.158;5.372;2023-08-01T09:31:53;6.83;;;3.80;;
15340;SDS011;7770;52.158;5.372;2023-08-01T09:34:40;4.43;;;2.87;;
15340;SDS011;7770;52.158;5.372;2023-08-01T09:37:37;5.30;;;3.40;;
15340;SDS011;7770;52.158;5.372;2023-08-01T09:40:25;7.70;;;3.65;;
15340;SDS011;7770;52.158;5.372;2023-08-01T09:43:11;5.18;;;3.25;;
15340;SDS011;7770;52.158;5.372;2023-08-01T09:45:58;5.87;;;3.37;;
15340;SDS011;7770;52.158;5.372;2023-08-01T09:48:44;5.33;;;3.07;;
15340;SDS011;7770;52.158;5.372;2023-08-01T09:51:30;6.67;;;3.67;;
15340;SDS011;7770;52.158;5.372;2023-08-01T09:54:16;7.97;;;3.70;;
15340;SDS011;7770;52.158;5.372;2023-08-01T09:57:03;6.43;;;3.60;;
15340;SDS011;7770;52.158;5.372;2023-08-01T09:59:51;8.03;;;3.83;;
15340;SDS011;7770;52.158;5.372;2023-08-01T10:02:38;6.97;;;3.77;;
15340;SDS011;7770;52.158;5.372;2023-08-01T10:05:32;8.70;;;4.07;;
15340;SDS011;7770;52.158;5.372;2023-08-01T10:08:22;6.93;;;3.50;;
15340;SDS011;7770;52.158;5.372;2023-08-01T10:11:08;6.57;;;3.70;;
15340;SDS011;7770;52.158;5.372;2023-08-01T10:13:54;5.95;;;3.15;;
15340;SDS011;7770;52.158;5.372;2023-08-01T10:16:41;4.70;;;2.83;;
15340;SDS011;7770;52.158;5.372;2023-08-01T10:19:29;7.10;;;3.00;;
15340;SDS011;7770;52.158;5.372;2023-08-01T10:22:18;4.10;;;2.67;;
15340;SDS011;7770;52.158;5.372;2023-08-01T10:25:05;4.15;;;2.92;;
15340;SDS011;7770;52.158;5.372;2023-08-01T10:28:01;4.50;;;2.80;;
15340;SDS011;7770;52.158;5.372;2023-08-01T10:30:51;6.60;;;2.88;;
15340;SDS011;7770;52.158;5.372;2023-08-01T10:33:37;5.65;;;2.90;;
15340;SDS011;7770;52.158;5.372;2023-08-01T10:36:25;4.53;;;2.97;;
15340;SDS011;7770;52.158;5.372;2023-08-01T10:39:20;5.68;;;3.17;;
15340;SDS011;7770;52.158;5.372;2023-08-01T10:42:11;5.30;;;2.80;;
15340;SDS011;7770;52.158;5.372;2023-08-01T10:44:58;5.28;;;2.80;;
15340;SDS011;7770;52.158;5.372;2023-08-01T10:47:44;4.68;;;2.80;;
15340;SDS011;7770;52.158;5.372;2023-08-01T10:50:30;6.57;;;3.15;;
15340;SDS011;7770;52.158;5.372;2023-08-01T10:53:16;4.13;;;2.90;;
15340;SDS011;7770;52.158;5.372;2023-08-01T10:56:02;6.20;;;3.10;;
15340;SDS011;7770;52.158;5.372;2023-08-01T10:58:48;6.78;;;3.30;;
15340;SDS011;7770;52.158;5.372;2023-08-01T11:01:42;5.90;;;3.13;;
15340;SDS011;7770;52.158;5.372;2023-08-01T11:04:34;7.40;;;3.10;;
15340;SDS011;7770;52.158;5.372;2023-08-01T11:07:20;4.72;;;2.95;;
15340;SDS011;7770;52.158;5.372;2023-08-01T11:10:12;6.13;;;2.60;;
15340;SDS011;7770;52.158;5.372;2023-08-01T11:12:59;6.13;;;3.10;;
15340;SDS011;7770;52.158;5.372;2023-08-01T11:15:45;5.30;;;3.08;;
15340;SDS011;7770;52.158;5.372;2023-08-01T11:18:41;4.85;;;3.00;;
15340;SDS011;7770;52.158;5.372;2023-08-01T11:21:28;6.80;;;2.97;;
15340;SDS011;7770;52.158;5.372;2023-08-01T11:24:15;7.60;;;3.28;;
15340;SDS011;7770;52.158;5.372;2023-08-01T11:27:02;7.13;;;3.58;;
15340;SDS011;7770;52.158;5.372;2023-08-01T11:29:48;7.25;;;3.60;;
15340;SDS011;7770;52.158;5.372;2023-08-01T11:32:35;8.37;;;3.90;;
15340;SDS011;7770;52.158;5.372;2023-08-01T11:35:24;6.40;;;3.40;;
15340;SDS011;7770;52.158;5.372;2023-08-01T11:38:10;4.90;;;3.10;;
15340;SDS011;7770;52.158;5.372;2023-08-01T11:40:56;5.60;;;3.20;;
15340;SDS011;7770;52.158;5.372;2023-08-01T11:43:44;6.93;;;3.20;;
15340;SDS011;7770;52.158;5.372;2023-08-01T11:46:30;6.10;;;3.08;;
15340;SDS011;7770;52.158;5.372;2023-08-01T11:49:18;6.80;;;2.78;;
15340;SDS011;7770;52.158;5.372;2023-08-01T11:52:04;5.72;;;2.90;;
15340;SDS011;7770;52.158;5.372;2023-08-01T11:54:51;6.65;;;3.00;;
15340;SDS011;7770;52.158;5.372;2023-08-01T11:57:39;6.22;;;3.22;;
15340;SDS011;7770;52.158;5.372;2023-08-01T12:00:26;6.55;;;3.17;;
15340;SDS011;7770;52.158;5.372;2023-08-01T12:03:14;6.82;;;2.95;;
15340;SDS011;7770;52.158;5.372;2023-08-01T12:06:03;7.72;;;3.10;;
15340;SDS011;7770;52.158;5.372;2023-08-01T12:08:53;5.03;;;2.72;;
15340;SDS011;7770;52.158;5.372;2023-08-01T12:11:40;4.25;;;2.83;;
15340;SDS011;7770;52.158;5.372;2023-08-01T12:14:27;6.77;;;3.50;;
15340;SDS011;7770;52.158;5.372;2023-08-01T12:17:13;6.10;;;3.13;;
15340;SDS011;7770;52.158;5.372;2023-08-01T12:19:59;6.10;;;3.30;;
15340;SDS011;7770;52.158;5.372;2023-08-01T12:22:45;6.17;;;3.30;;
15340;SDS011;7770;52.158;5.372;2023-08-01T12:25:31;6.40;;;3.47;;
15340;SDS011;7770;52.158;5.372;2023-08-01T12:28:17;9.23;;;3.60;;
15340;SDS011;7770;52.158;5.372;2023-08-01T12:31:03;7.90;;;3.93;;
15340;SDS011;7770;52.158;5.372;2023-08-01T12:33:49;7.70;;;3.77;;
15340;SDS011;7770;52.158;5.372;2023-08-01T12:36:35;5.53;;;2.80;;
15340;SDS011;7770;52.158;5.372;2023-08-01T12:39:21;3.83;;;2.50;;
15340;SDS011;7770;52.158;5.372;2023-08-01T12:42:09;5.93;;;3.27;;
15340;SDS011;7770;52.158;5.372;2023-08-01T12:44:55;7.70;;;3.40;;
15340;SDS011;7770;52.158;5.372;2023-08-01T12:47:41;5.60;;;3.00;;
15340;SDS011;7770;52.158;5.372;2023-08-01T12:50:27;6.20;;;3.33;;
15340;SDS011;7770;52.158;5.372;2023-08-01T12:53:13;7.57;;;2.70;;
15340;SDS011;7770;52.158;5.372;2023-08-01T12:55:59;6.23;;;2.83;;
15340;SDS011;7770;52.158;5.372;2023-08-01T12:58:45;5.00;;;2.80;;
15340;SDS011;7770;52.158;5.372;2023-08-01T13:01:31;6.73;;;2.90;;
15340;SDS011;7770;52.158;5.372;2023-08-01T13:04:17;4.63;;;3.07;;
15340;SDS011;7770;52.158;5.372;2023-08-01T13:07:03;7.40;;;3.17;;
15340;SDS011;7770;52.158;5.372;2023-08-01T13:09:50;5.00;;;3.10;;
15340;SDS011;7770;52.158;5.372;2023-08-01T13:12:36;5.20;;;3.47;;
15340;SDS011;7770;52.158;5.372;2023-08-01T13:15:22;6.93;;;3.60;;
15340;SDS011;7770;52.158;5.372;2023-08-01T13:18:09;6.83;;;3.73;;
15340;SDS011;7770;52.158;5.372;2023-08-01T13:20:59;7.87;;;3.53;;
15340;SDS011;7770;52.158;5.372;2023-08-01T13:23:46;11.90;;;4.37;;
15340;SDS011;7770;52.158;5.372;2023-08-01T13:26:32;11.20;;;4.17;;
15340;SDS011;7770;52.158;5.372;2023-08-01T13:29:18;6.57;;;3.60;;
15340;SDS011;7770;52.158;5.372;2023-08-01T13:32:05;6.97;;;3.70;;
15340;SDS011;7770;52.158;5.372;2023-08-01T13:34:52;9.60;;;3.90;;
15340;SDS011;7770;52.158;5.372;2023-08-01T13:37:38;8.43;;;3.50;;
15340;SDS011;7770;52.158;5.372;2023-08-01T13:40:24;9.23;;;4.43;;
15340;SDS011;7770;52.158;5.372;2023-08-01T13:43:11;5.43;;;3.33;;
15340;SDS011;7770;52.158;5.372;2023-08-01T13:45:57;5.73;;;3.17;;
15340;SDS011;7770;52.158;5.372;2023-08-01T13:48:43;5.53;;;2.77;;
15340;SDS011;7770;52.158;5.372;2023-08-01T13:51:33;5.17;;;3.00;;
15340;SDS011;7770;52.158;5.372;2023-08-01T13:54:19;5.67;;;2.90;;
15340;SDS011;7770;52.158;5.372;2023-08-01T13:57:05;6.60;;;3.20;;
15340;SDS011;7770;52.158;5.372;2023-08-01T13:59:52;9.23;;;3.13;;
15340;SDS011;7770;52.158;5.372;2023-08-01T14:02:37;6.13;;;2.73;;
15340;SDS011;7770;52.158;5.372;2023-08-01T14:05:26;10.83;;;3.30;;
15340;SDS011;7770;52.158;5.372;2023-08-01T14:08:12;6.30;;;3.10;;
15340;SDS011;7770;52.158;5.372;2023-08-01T14:10:58;5.33;;;2.90;;
15340;SDS011;7770;52.158;5.372;2023-08-01T14:13:48;6.63;;;3.03;;
15340;SDS011;7770;52.158;5.372;2023-08-01T14:16:34;7.53;;;3.37;;
15340;SDS011;7770;52.158;5.372;2023-08-01T14:19:20;7.17;;;3.73;;
15340;SDS011;7770;52.158;5.372;2023-08-01T14:22:06;8.87;;;3.67;;
15340;SDS011;7770;52.158;5.372;2023-08-01T14:24:52;8.73;;;3.57;;
15340;SDS011;7770;52.158;5.372;2023-08-01T14:27:38;6.70;;;3.20;;
15340;SDS011;7770;52.158;5.372;2023-08-01T14:30:24;8.90;;;3.37;;
15340;SDS011;7770;52.158;5.372;2023-08-01T14:33:10;7.93;;;2.90;;
15340;SDS011;7770;52.158;5.372;2023-08-01T14:35:57;6.53;;;3.50;;
15340;SDS011;7770;52.158;5.372;2023-08-01T14:38:43;9.07;;;3.57;;
15340;SDS011;7770;52.158;5.372;2023-08-01T14:41:30;6.43;;;3.50;;
15340;SDS011;7770;52.158;5.372;2023-08-01T14:44:16;6.23;;;3.17;;
15340;SDS011;7770;52.158;5.372;2023-08-01T14:47:02;9.70;;;3.40;;
15340;SDS011;7770;52.158;5.372;2023-08-01T14:49:49;7.97;;;3.27;;
15340;SDS011;7770;52.158;5.372;2023-08-01T14:52:35;6.57;;;3.30;;
15340;SDS011;7770;52.158;5.372;2023-08-01T14:55:21;6.10;;;3.27;;
15340;SDS011;7770;52.158;5.372;2023-08-01T14:58:07;6.63;;;3.50;;
15340;SDS011;7770;52.158;5.372;2023-08-01T15:00:53;5.77;;;2.70;;
15340;SDS011;7770;52.158;5.372;2023-08-01T15:03:39;2.97;;;2.10;;
15340;SDS011;7770;52.158;5.372;2023-08-01T15:06:25;2.87;;;2.13;;
15340;SDS011;7770;52.158;5.372;2023-08-01T15:09:11;5.70;;;2.30;;
15340;SDS011;7770;52.158;5.372;2023-08-01T15:11:57;4.43;;;2.37;;
15340;SDS011;7770;52.158;5.372;2023-08-01T15:14:43;5.57;;;2.67;;
15340;SDS011;7770;52.158;5.372;2023-08-01T15:17:29;4.53;;;3.00;;
15340;SDS011;7770;52.158;5.372;2023-08-01T15:20:16;6.40;;;3.23;;
15340;SDS011;7770;52.158;5.372;2023-08-01T15:23:02;5.43;;;3.60;;
15340;SDS011;7770;52.158;5.372;2023-08-01T15:25:51;7.53;;;3.67;;
15340;SDS011;7770;52.158;5.372;2023-08-01T15:28:42;7.43;;;3.70;;
15340;SDS011;7770;52.158;5.372;2023-08-01T15:31:28;5.23;;;3.60;;
15340;SDS011;7770;52.158;5.372;2023-08-01T15:34:14;5.83;;;3.43;;
15340;SDS011;7770;52.158;5.372;2023-08-01T15:37:00;6.17;;;3.30;;
15340;SDS011;7770;52.158;5.372;2023-08-01T15:39:46;7.17;;;3.80;;
15340;SDS011;7770;52.158;5.372;2023-08-01T15:42:32;6.83;;;3.80;;
15340;SDS011;7770;52.158;5.372;2023-08-01T15:45:18;7.00;;;3.70;;
15340;SDS011;7770;52.158;5.372;2023-08-01T15:48:04;7.93;;;3.90;;
15340;SDS011;7770;52.158;5.372;2023-08-01T15:50:50;8.93;;;4.30;;
15340;SDS011;7770;52.158;5.372;2023-08-01T15:53:36;8.20;;;4.23;;
15340;SDS011;7770;52.158;5.372;2023-08-01T15:56:22;6.20;;;4.00;;
15340;SDS011;7770;52.158;5.372;2023-08-01T15:59:09;5.30;;;3.13;;
15340;SDS011;7770;52.158;5.372;2023-08-01T16:01:55;5.20;;;2.80;;
15340;SDS011;7770;52.158;5.372;2023-08-01T16:04:41;6.00;;;2.90;;
15340;SDS011;7770;52.158;5.372;2023-08-01T16:07:27;4.33;;;2.97;;
15340;SDS011;7770;52.158;5.372;2023-08-01T16:10:13;6.13;;;2.50;;
15340;SDS011;7770;52.158;5.372;2023-08-01T16:12:59;5.47;;;2.57;;
15340;SDS011;7770;52.158;5.372;2023-08-01T16:15:45;6.37;;;2.70;;
15340;SDS011;7770;52.158;5.372;2023-08-01T16:18:31;5.73;;;2.80;;
15340;SDS011;7770;52.158;5.372;2023-08-01T16:21:17;3.80;;;2.17;;
15340;SDS011;7770;52.158;5.372;2023-08-01T16:24:03;3.13;;;2.27;;
15340;SDS011;7770;52.158;5.372;2023-08-01T16:26:49;5.00;;;2.50;;
15340;SDS011;7770;52.158;5.372;2023-08-01T16:29:35;6.70;;;2.73;;
15340;SDS011;7770;52.158;5.372;2023-08-01T16:32:21;6.23;;;2.90;;
15340;SDS011;7770;52.158;5.372;2023-08-01T16:35:07;5.73;;;2.80;;
15340;SDS011;7770;52.158;5.372;2023-08-01T16:37:54;6.23;;;3.20;;
15340;SDS011;7770;52.158;5.372;2023-08-01T16:40:40;6.37;;;3.23;;
15340;SDS011;7770;52.158;5.372;2023-08-01T16:43:26;4.20;;;2.80;;
15340;SDS011;7770;52.158;5.372;2023-08-01T16:46:12;9.23;;;3.13;;
15340;SDS011;7770;52.158;5.372;2023-08-01T16:48:58;5.20;;;3.17;;
15340;SDS011;7770;52.158;5.372;2023-08-01T16:51:44;6.40;;;3.17;;
15340;SDS011;7770;52.158;5.372;2023-08-01T16:54:30;6.67;;;3.00;;
15340;SDS011;7770;52.158;5.372;2023-08-01T16:57:16;4.97;;;3.10;;
15340;SDS011;7770;52.158;5.372;2023-08-01T17:00:02;8.23;;;3.50;;
15340;SDS011;7770;52.158;5.372;2023-08-01T17:02:51;6.40;;;3.27;;
15340;SDS011;7770;52.158;5.372;2023-08-01T17:05:37;8.03;;;2.93;;
15340;SDS011;7770;52.158;5.372;2023-08-01T17:08:23;8.43;;;3.17;;
15340;SDS011;7770;52.158;5.372;2023-08-01T17:11:09;6.63;;;2.97;;
15340;SDS011;7770;52.158;5.372;2023-08-01T17:13:55;6.13;;;3.00;;
15340;SDS011;7770;52.158;5.372;2023-08-01T17:16:41;6.57;;;2.87;;
15340;SDS011;7770;52.158;5.372;2023-08-01T17:19:27;7.40;;;3.10;;
15340;SDS011;7770;52.158;5.372;2023-08-01T17:22:13;3.70;;;2.67;;
15340;SDS011;7770;52.158;5.372;2023-08-01T17:24:59;5.17;;;2.50;;
15340;SDS011;7770;52.158;5.372;2023-08-01T17:27:45;6.77;;;2.77;;
15340;SDS011;7770;52.158;5.372;2023-08-01T17:30:31;3.57;;;2.40;;
15340;SDS011;7770;52.158;5.372;2023-08-01T17:33:18;4.53;;;2.57;;
15340;SDS011;7770;52.158;5.372;2023-08-01T17:36:04;6.60;;;2.33;;
15340;SDS011;7770;52.158;5.372;2023-08-01T17:38:50;5.70;;;2.60;;
15340;SDS011;7770;52.158;5.372;2023-08-01T17:41:36;4.67;;;2.57;;
15340;SDS011;7770;52.158;5.372;2023-08-01T17:44:22;4.93;;;2.40;;
15340;SDS011;7770;52.158;5.372;2023-08-01T17:47:09;5.87;;;2.70;;
15340;SDS011;7770;52.158;5.372;2023-08-01T17:49:55;6.87;;;2.80;;
15340;SDS011;7770;52.158;5.372;2023-08-01T17:52:41;5.83;;;2.53;;
15340;SDS011;7770;52.158;5.372;2023-08-01T17:55:27;4.90;;;2.70;;
15340;SDS011;7770;52.158;5.372;2023-08-01T17:58:16;6.73;;;2.30;;
15340;SDS011;7770;52.158;5.372;2023-08-01T18:01:02;5.70;;;3.07;;
15340;SDS011;7770;52.158;5.372;2023-08-01T18:03:50;7.17;;;3.33;;
15340;SDS011;7770;52.158;5.372;2023-08-01T18:06:37;6.60;;;3.00;;
15340;SDS011;7770;52.158;5.372;2023-08-01T18:09:24;5.67;;;2.83;;
15340;SDS011;7770;52.158;5.372;2023-08-01T18:12:10;6.00;;;2.90;;
15340;SDS011;7770;52.158;5.372;2023-08-01T18:14:56;6.47;;;3.20;;
15340;SDS011;7770;52.158;5.372;2023-08-01T18:17:42;6.93;;;3.00;;
15340;SDS011;7770;52.158;5.372;2023-08-01T18:20:28;5.07;;;2.97;;
15340;SDS011;7770;52.158;5.372;2023-08-01T18:23:14;10.13;;;3.37;;
15340;SDS011;7770;52.158;5.372;2023-08-01T18:26:00;9.70;;;3.57;;
15340;SDS011;7770;52.158;5.372;2023-08-01T18:28:47;6.70;;;3.10;;
15340;SDS011;7770;52.158;5.372;2023-08-01T18:31:34;5.97;;;3.00;;
15340;SDS011;7770;52.158;5.372;2023-08-01T18:34:20;7.07;;;3.47;;
15340;SDS011;7770;52.158;5.372;2023-08-01T18:37:06;8.00;;;3.40;;
15340;SDS011;7770;52.158;5.372;2023-08-01T18:39:53;6.90;;;3.13;;
15340;SDS011;7770;52.158;5.372;2023-08-01T18:42:42;4.00;;;2.67;;
15340;SDS011;7770;52.158;5.372;2023-08-01T18:45:28;7.10;;;3.37;;
15340;SDS011;7770;52.158;5.372;2023-08-01T18:48:15;6.90;;;3.07;;
15340;SDS011;7770;52.158;5.372;2023-08-01T18:51:08;6.93;;;2.90;;
15340;SDS011;7770;52.158;5.372;2023-08-01T18:53:59;7.30;;;3.10;;
15340;SDS011;7770;52.158;5.372;2023-08-01T18:56:45;8.50;;;3.30;;
15340;SDS011;7770;52.158;5.372;2023-08-01T18:59:31;8.63;;;3.10;;
15340;SDS011;7770;52.158;5.372;2023-08-01T19:02:17;8.17;;;3.17;;
15340;SDS011;7770;52.158;5.372;2023-08-01T19:05:06;6.57;;;2.97;;